Time;durP1;ratioP1;P1;durP2;ratioP2;P2;SDS_P1;SDS_P2;PMS_P1;PMS_P2;Temp;Humidity;BMP_temperature;BMP_pressure;BME280_temperature;BME280_humidity;BME280_pressure;Samples;Min_cycle;Max_cycle;Signal;HPM_P1;HPM_P2
2023/10/05 00:02:56;;;;;;;2.33;1.20;;;8.00;99.90;;;;;;5023246;28;20436;-62
2023/10/05 00:05:22;;;;;;;2.27;1.10;;;8.00;99.90;;;;;;5022577;28;20425;-61
2023/10/05 00:07:48;;;;;;;2.37;1.20;;;8.00;99.90;;;;;;5023606;28;20454;-61
2023/10/05 00:10:15;;;;;;;6.33;1.03;;;7.90;99.90;;;;;;5023112;28;20488;-61
2023/10/05 00:12:41;;;;;;;2.93;1.23;;;7.90;99.90;;;;;;5029596;28;20179;-61
2023/10/05 00:17:36;;;;;;;6.23;1.53;;;7.80;99.90;;;;;;5029291;28;20433;-62
2023/10/05 00:20:48;;;;;;;2.00;1.00;;;7.70;99.90;;;;;;5022024;28;20425;-62
2023/10/05 00:22:51;;;;;;;3.20;1.30;;;7.80;99.90;;;;;;5018935;28;20425;-61
2023/10/05 00:25:18;;;;;;;2.57;1.07;;;7.80;99.90;;;;;;5021799;28;20905;-62
2023/10/05 00:27:44;;;;;;;1.97;0.90;;;7.70;99.90;;;;;;5026979;28;20178;-61
2023/10/05 00:30:13;;;;;;;2.27;1.17;;;7.80;99.90;;;;;;5019482;28;20511;-62
2023/10/05 00:32:39;;;;;;;5.47;1.57;;;7.70;99.90;;;;;;5029793;28;20421;-62
2023/10/05 00:35:48;;;;;;;5.13;1.50;;;7.80;99.90;;;;;;5021600;28;20913;-61
2023/10/05 00:38:12;;;;;;;2.93;1.00;;;7.80;99.90;;;;;;5021056;28;20198;-62
2023/10/05 00:40:42;;;;;;;1.63;0.87;;;7.80;99.90;;;;;;5023458;28;20432;-62
2023/10/05 00:43:46;;;;;;;2.20;1.23;;;7.80;99.90;;;;;;5029458;28;20559;-61
2023/10/05 00:46:00;;;;;;;3.23;1.17;;;7.80;99.90;;;;;;5020382;28;20886;-61
2023/10/05 00:48:34;;;;;;;3.23;1.20;;;7.90;99.90;;;;;;5029857;28;20504;-62
2023/10/05 00:51:06;;;;;;;4.60;1.10;;;7.80;99.90;;;;;;5024321;28;20645;-62
2023/10/05 00:53:32;;;;;;;2.80;1.43;;;7.70;99.90;;;;;;5030250;28;20465;-62
2023/10/05 00:56:14;;;;;;;1.93;1.03;;;7.60;99.90;;;;;;5021327;28;20913;-62
2023/10/05 00:58:44;;;;;;;1.70;0.80;;;7.60;99.90;;;;;;5028077;28;21160;-62
2023/10/05 01:01:27;;;;;;;2.90;1.37;;;7.70;99.90;;;;;;5021218;28;20423;-62
2023/10/05 01:09:12;;;;;;;2.70;1.07;;;7.90;99.90;;;;;;5026530;28;20429;-62
2023/10/05 01:11:43;;;;;;;4.77;1.30;;;7.80;99.90;;;;;;5025587;28;20469;-62
2023/10/05 01:14:09;;;;;;;2.13;0.93;;;7.80;99.90;;;;;;5029200;28;20470;-62
2023/10/05 01:16:35;;;;;;;2.23;0.97;;;7.70;99.90;;;;;;5028161;28;20416;-62
2023/10/05 01:19:07;;;;;;;2.10;1.03;;;7.70;99.90;;;;;;5030023;28;21301;-62
2023/10/05 01:21:37;;;;;;;2.10;1.00;;;7.60;99.90;;;;;;5028685;28;20182;-62
2023/10/05 01:24:04;;;;;;;2.67;0.93;;;7.60;99.90;;;;;;5030253;28;20465;-62
2023/10/05 01:26:32;;;;;;;6.20;1.20;;;7.70;99.90;;;;;;5027829;28;20417;-62
2023/10/05 01:28:58;;;;;;;1.30;0.60;;;7.80;99.90;;;;;;5030392;28;20431;-62
2023/10/05 01:31:24;;;;;;;2.10;1.20;;;7.80;99.90;;;;;;5026738;28;20471;-61
2023/10/05 01:33:50;;;;;;;1.20;0.70;;;7.80;99.90;;;;;;5030909;28;20429;-62
2023/10/05 01:36:17;;;;;;;2.97;1.00;;;7.70;99.90;;;;;;5024846;28;20182;-62
2023/10/05 01:38:45;;;;;;;2.23;1.10;;;7.50;99.90;;;;;;5030034;28;20425;-62
2023/10/05 01:41:13;;;;;;;2.63;1.30;;;7.60;99.90;;;;;;5026379;28;20428;-62
2023/10/05 01:43:42;;;;;;;1.67;0.80;;;7.70;99.90;;;;;;5031978;28;20425;-62
2023/10/05 01:46:10;;;;;;;3.33;1.07;;;7.70;99.90;;;;;;5025461;28;20412;-62
2023/10/05 01:48:40;;;;;;;3.77;1.10;;;7.60;99.90;;;;;;5028122;28;20409;-62
2023/10/05 01:51:19;;;;;;;2.90;1.57;;;7.60;99.90;;;;;;5028516;28;20479;-62
2023/10/05 01:53:45;;;;;;;1.67;1.00;;;7.60;99.90;;;;;;5031426;28;20467;-62
2023/10/05 01:56:14;;;;;;;2.27;0.67;;;7.60;99.90;;;;;;5024518;28;20457;-62
2023/10/05 01:58:43;;;;;;;3.63;1.23;;;7.60;99.90;;;;;;5031359;28;20174;-63
2023/10/05 02:01:10;;;;;;;3.57;1.17;;;7.60;99.90;;;;;;5025677;28;20455;-62
2023/10/05 02:03:36;;;;;;;1.47;0.93;;;7.60;99.90;;;;;;5028305;28;20433;-62
2023/10/05 02:06:11;;;;;;;7.90;0.97;;;7.60;99.90;;;;;;5024072;28;20421;-62
2023/10/05 02:08:37;;;;;;;1.60;0.77;;;7.60;99.90;;;;;;5031693;28;20224;-62
2023/10/05 02:11:04;;;;;;;1.43;0.70;;;7.50;99.90;;;;;;5024541;28;20472;-62
2023/10/05 02:13:31;;;;;;;1.63;0.90;;;7.40;99.90;;;;;;5031959;28;20925;-62
2023/10/05 02:15:59;;;;;;;4.03;1.20;;;7.30;99.90;;;;;;5022708;28;20425;-62
2023/10/05 02:18:25;;;;;;;1.40;0.67;;;7.20;99.90;;;;;;5032045;28;21068;-62
2023/10/05 02:20:56;;;;;;;1.70;1.00;;;7.20;99.90;;;;;;5023259;28;20444;-62
2023/10/05 02:23:25;;;;;;;3.10;1.10;;;7.30;99.90;;;;;;5031171;28;20451;-62
2023/10/05 02:26:00;;;;;;;2.10;1.00;;;7.20;99.90;;;;;;5022299;28;20432;-62
2023/10/05 02:28:26;;;;;;;3.47;1.00;;;7.20;99.90;;;;;;5031718;28;20808;-62
2023/10/05 02:30:59;;;;;;;13.20;0.80;;;7.20;99.90;;;;;;5022720;28;20461;-62
2023/10/05 02:33:27;;;;;;;2.50;0.90;;;7.20;99.90;;;;;;5032065;28;20179;-62
2023/10/05 02:36:28;;;;;;;3.37;1.30;;;7.10;99.90;;;;;;5022790;28;20820;-62
2023/10/05 02:38:53;;;;;;;1.80;1.10;;;7.10;99.90;;;;;;5030099;28;20441;-62
2023/10/05 02:41:26;;;;;;;4.50;1.27;;;7.10;99.90;;;;;;5027513;28;20427;-62
2023/10/05 02:43:52;;;;;;;4.97;0.93;;;7.10;99.90;;;;;;5029663;28;20566;-62
2023/10/05 02:46:20;;;;;;;2.03;1.17;;;7.10;99.90;;;;;;5025243;28;20500;-62
2023/10/05 02:48:46;;;;;;;2.63;0.90;;;7.10;99.90;;;;;;5030198;28;20189;-62
2023/10/05 02:51:13;;;;;;;2.53;0.97;;;7.20;99.90;;;;;;5025702;28;20538;-62
2023/10/05 02:53:57;;;;;;;4.17;1.07;;;7.20;99.90;;;;;;5030608;28;20429;-62
2023/10/05 02:56:33;;;;;;;3.13;1.20;;;7.20;99.90;;;;;;5022898;28;20444;-62
2023/10/05 02:59:02;;;;;;;1.60;0.87;;;7.10;99.90;;;;;;5024347;28;20420;-62
2023/10/05 03:01:32;;;;;;;2.50;1.20;;;7.20;99.90;;;;;;5025350;28;20413;-62
2023/10/05 03:04:04;;;;;;;1.77;0.90;;;7.30;99.90;;;;;;5028495;28;20484;-62
2023/10/05 03:06:30;;;;;;;3.47;1.37;;;7.30;99.90;;;;;;5026086;28;20483;-61
2023/10/05 03:08:58;;;;;;;2.07;1.20;;;7.40;99.90;;;;;;5028498;28;20458;-62
2023/10/05 03:11:25;;;;;;;1.60;1.00;;;7.40;99.90;;;;;;5024633;28;20198;-62
2023/10/05 03:13:51;;;;;;;2.43;1.57;;;7.40;99.90;;;;;;5028869;28;20418;-62
2023/10/05 03:16:17;;;;;;;3.37;1.37;;;7.50;99.90;;;;;;5023480;28;20420;-62
2023/10/05 03:18:43;;;;;;;2.50;0.97;;;7.50;99.90;;;;;;5029468;28;20623;-62
2023/10/05 03:21:13;;;;;;;2.43;1.43;;;7.50;99.90;;;;;;5023189;28;20420;-62
2023/10/05 03:23:42;;;;;;;6.33;1.67;;;7.60;99.90;;;;;;5030298;28;20428;-62
2023/10/05 03:26:13;;;;;;;3.23;1.30;;;7.60;99.90;;;;;;5022910;28;20413;-62
2023/10/05 03:28:41;;;;;;;2.90;1.33;;;7.60;99.90;;;;;;5029363;28;20913;-62
2023/10/05 03:31:32;;;;;;;2.40;1.20;;;7.60;99.90;;;;;;5022356;28;20498;-62
2023/10/05 03:33:58;;;;;;;4.50;1.77;;;7.50;99.90;;;;;;5028492;28;20418;-62
2023/10/05 03:36:23;;;;;;;8.20;1.20;;;7.30;99.90;;;;;;5022213;28;20428;-62
2023/10/05 03:38:56;;;;;;;2.30;0.97;;;7.30;99.90;;;;;;5028329;28;20199;-62
2023/10/05 03:41:28;;;;;;;1.53;0.83;;;7.20;99.90;;;;;;5024011;28;20178;-63
2023/10/05 03:44:01;;;;;;;2.23;1.13;;;7.40;99.90;;;;;;5028419;28;23463;-62
2023/10/05 03:46:27;;;;;;;2.37;1.40;;;7.50;99.90;;;;;;5021757;28;20428;-62
2023/10/05 03:48:59;;;;;;;11.83;2.00;;;7.60;99.90;;;;;;5028406;28;20780;-63
2023/10/05 03:51:25;;;;;;;4.40;1.70;;;7.60;99.90;;;;;;5025186;28;20582;-62
2023/10/05 03:53:51;;;;;;;16.77;1.83;;;7.70;99.90;;;;;;5028640;28;20417;-62
2023/10/05 03:56:23;;;;;;;2.63;1.57;;;7.80;99.90;;;;;;5022994;28;20422;-63
2023/10/05 03:58:53;;;;;;;5.03;1.40;;;7.80;99.90;;;;;;5028705;28;20224;-62
2023/10/05 04:01:19;;;;;;;3.90;1.20;;;7.80;99.90;;;;;;5026399;28;20451;-63
2023/10/05 04:03:49;;;;;;;7.53;1.17;;;7.70;99.90;;;;;;5029321;28;20413;-63
2023/10/05 04:06:18;;;;;;;8.63;2.90;;;7.80;99.90;;;;;;5026058;28;20413;-62
2023/10/05 04:09:00;;;;;;;4.40;1.90;;;7.70;99.90;;;;;;5029702;28;20916;-62
2023/10/05 04:11:27;;;;;;;6.40;1.40;;;7.70;99.90;;;;;;5027200;28;20504;-62
2023/10/05 04:13:54;;;;;;;2.83;1.50;;;7.70;99.90;;;;;;5028294;28;20419;-64
2023/10/05 04:16:22;;;;;;;3.20;1.87;;;7.60;99.90;;;;;;5023106;28;20496;-64
2023/10/05 04:18:52;;;;;;;2.30;1.30;;;7.70;99.90;;;;;;5029096;28;20512;-64
2023/10/05 04:21:18;;;;;;;9.23;1.00;;;7.80;99.90;;;;;;5026409;28;20941;-64
2023/10/05 04:23:49;;;;;;;5.30;1.90;;;7.80;99.90;;;;;;5029021;28;20547;-64
2023/10/05 04:26:19;;;;;;;2.80;1.60;;;7.80;99.90;;;;;;5025884;28;20912;-64
2023/10/05 04:28:57;;;;;;;2.43;1.47;;;7.90;99.90;;;;;;5025008;28;20895;-64
2023/10/05 04:31:24;;;;;;;3.23;1.37;;;7.90;99.90;;;;;;5026565;28;20550;-64
2023/10/05 04:33:54;;;;;;;5.53;1.63;;;7.90;99.90;;;;;;5029086;28;20417;-64
2023/10/05 04:36:24;;;;;;;2.67;1.60;;;8.00;99.90;;;;;;5024007;28;20524;-64
2023/10/05 04:38:54;;;;;;;2.60;1.30;;;8.00;99.90;;;;;;5030015;28;20421;-64
2023/10/05 04:41:39;;;;;;;1.70;0.93;;;8.00;99.90;;;;;;5022672;28;20423;-64
2023/10/05 04:44:12;;;;;;;9.23;1.60;;;8.10;99.90;;;;;;5026300;28;20472;-64
2023/10/05 04:46:47;;;;;;;2.80;1.20;;;8.00;99.90;;;;;;5026070;28;20420;-64
2023/10/05 04:49:13;;;;;;;3.70;1.60;;;8.00;99.90;;;;;;5029248;28;20433;-64
2023/10/05 04:51:40;;;;;;;2.67;1.43;;;8.00;99.90;;;;;;5031268;28;20539;-64
2023/10/05 04:54:11;;;;;;;3.60;2.10;;;7.90;99.90;;;;;;5030498;28;20476;-64
2023/10/05 04:56:43;;;;;;;7.50;1.47;;;7.90;99.90;;;;;;5027757;28;20437;-64
2023/10/05 05:01:56;;;;;;;5.97;1.63;;;7.90;99.90;;;;;;5028839;28;20439;-64
2023/10/05 05:06:53;;;;;;;3.87;1.80;;;7.90;99.90;;;;;;5031472;28;20421;-62
2023/10/05 05:09:20;;;;;;;3.40;1.50;;;7.90;99.90;;;;;;5028888;28;20434;-62
2023/10/05 05:11:47;;;;;;;5.70;1.50;;;8.00;99.90;;;;;;5030717;28;20547;-63
2023/10/05 05:14:13;;;;;;;3.87;1.77;;;7.80;99.90;;;;;;5022508;28;20485;-63
2023/10/05 05:16:40;;;;;;;5.47;1.53;;;7.80;99.90;;;;;;5027392;28;20417;-63
2023/10/05 05:19:06;;;;;;;4.73;2.40;;;7.90;99.90;;;;;;5028695;28;20183;-63
2023/10/05 05:21:34;;;;;;;5.00;1.97;;;7.90;99.90;;;;;;5029035;28;20841;-63
2023/10/05 05:24:00;;;;;;;2.37;1.07;;;7.70;99.90;;;;;;5030102;28;20425;-63
2023/10/05 05:26:26;;;;;;;2.10;1.23;;;7.90;99.90;;;;;;5026074;28;20432;-63
2023/10/05 05:28:53;;;;;;;4.73;1.70;;;7.90;99.90;;;;;;5030871;28;20429;-62
2023/10/05 05:31:18;;;;;;;4.40;1.47;;;8.00;99.90;;;;;;5025828;28;20195;-63
2023/10/05 05:33:44;;;;;;;4.30;1.23;;;8.00;99.90;;;;;;5032077;28;21149;-63
2023/10/05 05:36:12;;;;;;;2.43;1.20;;;8.00;99.90;;;;;;5024498;28;20174;-63
2023/10/05 05:38:39;;;;;;;2.67;1.10;;;8.10;99.90;;;;;;5033008;28;20209;-64
2023/10/05 05:41:12;;;;;;;3.00;1.57;;;8.10;99.90;;;;;;5025891;28;20422;-63
2023/10/05 05:43:41;;;;;;;2.50;1.43;;;8.10;99.90;;;;;;5031825;28;20425;-63
2023/10/05 05:46:14;;;;;;;1.97;1.00;;;8.10;99.90;;;;;;5025338;28;21105;-63
2023/10/05 05:48:43;;;;;;;2.83;1.63;;;8.20;99.90;;;;;;5032100;28;20506;-63
2023/10/05 05:51:14;;;;;;;6.20;1.53;;;8.20;99.90;;;;;;5027580;28;20495;-63
2023/10/05 05:53:41;;;;;;;8.07;2.17;;;8.20;99.90;;;;;;5032155;28;20421;-63
2023/10/05 05:56:07;;;;;;;4.07;1.50;;;8.30;99.90;;;;;;5023458;28;20418;-63
2023/10/05 05:58:32;;;;;;;2.53;1.17;;;8.30;99.90;;;;;;5031416;28;20835;-63
2023/10/05 06:00:58;;;;;;;2.27;1.50;;;8.30;99.90;;;;;;5020353;28;20225;-63
2023/10/05 06:03:27;;;;;;;2.00;1.30;;;8.40;99.90;;;;;;5031155;28;20186;-63
2023/10/05 06:05:53;;;;;;;3.27;1.17;;;8.30;99.90;;;;;;5022568;28;20304;-63
2023/10/05 06:08:19;;;;;;;4.73;1.30;;;8.40;99.90;;;;;;5030043;28;20421;-63
2023/10/05 06:10:46;;;;;;;3.53;1.50;;;8.40;99.90;;;;;;5016623;28;20544;-63
2023/10/05 06:13:13;;;;;;;1.67;1.13;;;8.40;99.90;;;;;;5021669;28;20221;-63
2023/10/05 06:15:39;;;;;;;3.20;1.90;;;8.50;99.90;;;;;;5027164;28;20425;-63
2023/10/05 06:18:05;;;;;;;1.83;0.97;;;8.40;99.90;;;;;;5030576;28;20424;-63
2023/10/05 06:20:31;;;;;;;3.00;1.43;;;8.50;99.90;;;;;;5023976;28;20519;-63
2023/10/05 06:22:58;;;;;;;3.37;1.70;;;8.60;99.90;;;;;;5027943;28;20186;-63
2023/10/05 06:25:25;;;;;;;3.00;1.70;;;8.60;99.90;;;;;;5023948;28;20439;-63
2023/10/05 06:27:51;;;;;;;2.60;1.70;;;8.80;99.90;;;;;;5030802;28;20417;-63
2023/10/05 06:30:17;;;;;;;2.97;1.50;;;8.90;99.90;;;;;;5024037;28;20512;-63
2023/10/05 06:32:43;;;;;;;3.37;1.27;;;8.90;99.90;;;;;;5030547;28;20182;-63
2023/10/05 06:35:09;;;;;;;9.23;2.10;;;8.90;99.90;;;;;;5024064;28;20417;-63
2023/10/05 06:37:41;;;;;;;3.83;1.50;;;9.00;99.90;;;;;;5031457;28;20189;-63
2023/10/05 06:40:13;;;;;;;3.80;1.53;;;9.20;99.90;;;;;;5024790;28;20787;-63
2023/10/05 06:42:43;;;;;;;3.60;1.97;;;9.20;99.90;;;;;;5031011;28;20941;-63
2023/10/05 06:45:13;;;;;;;3.53;1.33;;;9.20;99.90;;;;;;5024384;28;20780;-63
2023/10/05 06:47:39;;;;;;;4.50;2.10;;;9.20;99.90;;;;;;5030432;28;20905;-63
2023/10/05 06:50:08;;;;;;;4.27;1.90;;;9.30;99.90;;;;;;5026864;28;20426;-63
2023/10/05 06:52:39;;;;;;;4.90;1.63;;;9.40;99.90;;;;;;5030702;28;20781;-63
2023/10/05 06:55:07;;;;;;;1.60;1.20;;;9.40;99.90;;;;;;5028029;28;20422;-63
2023/10/05 06:57:37;;;;;;;9.93;1.70;;;9.40;99.90;;;;;;5030276;28;20944;-63
2023/10/05 07:00:11;;;;;;;4.00;1.63;;;9.50;99.90;;;;;;5023125;28;20443;-63
2023/10/05 07:02:40;;;;;;;6.13;1.90;;;9.50;99.90;;;;;;5029937;28;20889;-63
2023/10/05 07:05:06;;;;;;;4.10;1.37;;;9.60;99.90;;;;;;5022306;28;20437;-63
2023/10/05 07:07:33;;;;;;;4.33;1.93;;;9.70;99.90;;;;;;5027143;28;20425;-63
2023/10/05 07:09:58;;;;;;;7.43;1.70;;;9.70;99.90;;;;;;5021389;28;20556;-63
2023/10/05 07:12:24;;;;;;;4.17;1.80;;;9.80;99.90;;;;;;5029804;28;20552;-63
2023/10/05 07:14:50;;;;;;;7.40;2.10;;;9.80;99.90;;;;;;5016342;28;20290;-63
2023/10/05 07:17:16;;;;;;;4.33;1.63;;;9.80;99.90;;;;;;5029260;28;20848;-63
2023/10/05 07:19:48;;;;;;;4.67;1.20;;;9.80;99.90;;;;;;5021366;28;20565;-63
2023/10/05 07:22:13;;;;;;;2.20;1.43;;;9.70;99.90;;;;;;5029178;28;20417;-63
2023/10/05 07:24:40;;;;;;;4.77;2.13;;;9.90;99.90;;;;;;5024395;28;20917;-63
2023/10/05 07:27:05;;;;;;;2.60;1.20;;;10.00;99.90;;;;;;5026923;28;20564;-63
2023/10/05 07:29:31;;;;;;;8.50;2.00;;;10.10;99.90;;;;;;5026758;28;20463;-64
2023/10/05 07:31:57;;;;;;;3.43;1.60;;;10.20;99.90;;;;;;5021761;28;20230;-63
2023/10/05 07:34:24;;;;;;;3.10;1.40;;;10.30;99.90;;;;;;5018283;28;20626;-63
2023/10/05 07:36:50;;;;;;;5.40;1.40;;;10.50;99.90;;;;;;5026503;28;20433;-63
2023/10/05 07:39:18;;;;;;;6.13;2.00;;;10.70;99.90;;;;;;5027784;28;20423;-63
2023/10/05 07:41:45;;;;;;;2.63;1.23;;;10.90;99.90;;;;;;5028880;28;20420;-63
2023/10/05 07:44:12;;;;;;;3.60;1.57;;;11.10;99.90;;;;;;5025890;28;20454;-63
2023/10/05 07:46:38;;;;;;;2.97;1.60;;;11.30;99.90;;;;;;5027468;28;20429;-63
2023/10/05 07:49:04;;;;;;;5.47;1.80;;;11.30;99.90;;;;;;5026770;28;20191;-63
2023/10/05 07:51:31;;;;;;;3.50;1.87;;;11.40;99.90;;;;;;5023327;28;20214;-63
2023/10/05 07:53:58;;;;;;;3.00;1.60;;;11.40;99.90;;;;;;5028165;28;20222;-63
2023/10/05 07:56:24;;;;;;;4.30;1.93;;;11.40;99.90;;;;;;5023682;28;20441;-63
2023/10/05 07:58:50;;;;;;;4.63;1.10;;;11.60;99.90;;;;;;5028497;28;20428;-63
2023/10/05 08:01:17;;;;;;;5.80;1.60;;;11.60;99.90;;;;;;5024204;28;20425;-63
2023/10/05 08:03:43;;;;;;;3.10;1.50;;;11.60;99.90;;;;;;5029685;28;20179;-63
2023/10/05 08:06:09;;;;;;;3.30;1.83;;;11.60;99.90;;;;;;5022350;28;20512;-63
2023/10/05 08:08:35;;;;;;;8.93;1.77;;;11.70;99.90;;;;;;5028377;28;20533;-63
2023/10/05 08:11:01;;;;;;;3.13;1.10;;;11.80;99.90;;;;;;5025502;28;21186;-64
2023/10/05 08:13:27;;;;;;;3.20;1.23;;;12.00;99.90;;;;;;5027889;28;20546;-63
2023/10/05 08:15:53;;;;;;;20.63;1.43;;;12.30;99.90;;;;;;5020644;28;20686;-63
2023/10/05 08:18:19;;;;;;;5.73;2.43;;;12.60;99.90;;;;;;5028858;28;20424;-63
2023/10/05 08:20:44;;;;;;;6.90;1.60;;;12.80;99.90;;;;;;5022753;28;20187;-63
2023/10/05 08:23:10;;;;;;;2.70;1.27;;;13.20;99.90;;;;;;5032706;28;20197;-63
2023/10/05 08:25:36;;;;;;;16.00;1.67;;;13.20;99.90;;;;;;5026152;28;20220;-63
2023/10/05 08:28:02;;;;;;;4.70;2.20;;;13.20;99.90;;;;;;5032380;28;20182;-63
2023/10/05 08:30:33;;;;;;;3.43;1.60;;;13.30;99.90;;;;;;5021916;28;20818;-63
2023/10/05 08:32:59;;;;;;;6.63;2.83;;;13.40;99.90;;;;;;5032618;28;20440;-63
2023/10/05 08:35:26;;;;;;;2.77;1.07;;;13.60;99.90;;;;;;5025745;28;20429;-63
2023/10/05 08:37:53;;;;;;;4.00;1.20;;;13.60;99.90;;;;;;5033044;28;20193;-63
2023/10/05 08:40:52;;;;;;;5.10;1.70;;;14.00;99.90;;;;;;5028548;28;20527;-63
2023/10/05 08:43:12;;;;;;;3.40;1.33;;;14.30;99.90;;;;;;5030978;28;20409;-63
2023/10/05 08:45:51;;;;;;;3.37;1.40;;;14.50;99.90;;;;;;5026772;28;21134;-64
2023/10/05 08:48:20;;;;;;;3.20;1.30;;;14.80;99.90;;;;;;5033393;28;20885;-63
2023/10/05 08:50:51;;;;;;;3.17;1.47;;;14.90;99.90;;;;;;5027843;28;20530;-63
2023/10/05 08:53:20;;;;;;;2.00;0.90;;;15.00;99.90;;;;;;5026309;28;20443;-63
2023/10/05 08:55:46;;;;;;;3.17;1.30;;;14.90;99.90;;;;;;5029278;28;20980;-63
2023/10/05 08:58:18;;;;;;;10.13;2.20;;;15.10;99.90;;;;;;5032945;28;20948;-64
2023/10/05 09:00:45;;;;;;;5.80;1.90;;;15.10;99.90;;;;;;5025360;28;20463;-63
2023/10/05 09:03:29;;;;;;;9.93;1.77;;;15.20;99.80;;;;;;5032577;28;20458;-63
2023/10/05 09:06:20;;;;;;;7.87;2.60;;;15.20;99.80;;;;;;5023883;28;20436;-64
2023/10/05 09:09:01;;;;;;;9.87;2.17;;;15.30;99.70;;;;;;5028931;28;20438;-63
2023/10/05 09:11:34;;;;;;;6.00;1.87;;;15.40;99.50;;;;;;5030383;28;20464;-63
2023/10/05 09:14:12;;;;;;;10.40;2.40;;;15.70;99.20;;;;;;5029534;28;20425;-63
2023/10/05 09:16:41;;;;;;;8.97;2.23;;;15.70;99.00;;;;;;5028792;28;20415;-64
2023/10/05 09:19:18;;;;;;;7.03;2.60;;;15.60;98.50;;;;;;5028281;28;20902;-63
2023/10/05 09:24:25;;;;;;;8.73;2.90;;;15.60;98.80;;;;;;5022170;28;20440;-63
2023/10/05 09:26:57;;;;;;;4.00;1.83;;;15.40;98.70;;;;;;5030602;28;20482;-63
2023/10/05 09:29:34;;;;;;;10.97;2.47;;;15.30;99.10;;;;;;5028463;28;20955;-63
2023/10/05 09:31:59;;;;;;;16.30;2.40;;;15.30;99.40;;;;;;5030718;28;20468;-63
2023/10/05 09:34:55;;;;;;;9.03;3.23;;;15.20;99.60;;;;;;5026993;28;20826;-63
2023/10/05 09:37:24;;;;;;;8.63;3.10;;;15.10;99.50;;;;;;5026246;28;20190;-63
2023/10/05 09:39:53;;;;;;;4.90;1.90;;;15.10;99.60;;;;;;5029781;28;20457;-63
2023/10/05 09:42:26;;;;;;;8.03;2.40;;;15.20;99.80;;;;;;5031757;28;20509;-63
2023/10/05 09:44:58;;;;;;;7.00;2.40;;;15.40;99.40;;;;;;5026139;28;20433;-63
2023/10/05 09:47:33;;;;;;;13.30;3.20;;;15.50;99.00;;;;;;5031705;28;20413;-63
2023/10/05 09:50:00;;;;;;;8.90;3.10;;;15.40;98.80;;;;;;5024738;28;20433;-63
2023/10/05 09:52:37;;;;;;;10.53;3.33;;;15.40;98.90;;;;;;5031563;28;20473;-63
2023/10/05 09:55:05;;;;;;;7.23;2.03;;;15.50;98.70;;;;;;5023979;28;20430;-63
2023/10/05 09:57:41;;;;;;;5.23;1.93;;;15.50;98.70;;;;;;5032854;28;20437;-63
2023/10/05 10:00:11;;;;;;;6.03;1.90;;;15.50;98.80;;;;;;5024573;28;20436;-63
2023/10/05 10:02:39;;;;;;;11.20;2.40;;;15.50;98.90;;;;;;5031081;28;20425;-63
2023/10/05 10:08:28;;;;;;;3.40;1.83;;;15.60;98.20;;;;;;5006541;28;20445;-64
2023/10/05 10:11:41;;;;;;;4.97;1.37;;;15.70;97.80;;;;;;5028558;28;20518;-63
2023/10/05 10:14:04;;;;;;;7.27;2.33;;;15.70;97.30;;;;;;5024005;28;20485;-63
2023/10/05 10:16:32;;;;;;;8.50;2.27;;;15.50;97.90;;;;;;5026366;28;20416;-63
2023/10/05 10:19:20;;;;;;;6.87;1.53;;;15.60;97.50;;;;;;5027616;28;20429;-63
2023/10/05 10:21:49;;;;;;;5.43;2.10;;;15.70;97.20;;;;;;5028956;28;20423;-64
2023/10/05 10:24:18;;;;;;;4.60;1.97;;;15.80;96.50;;;;;;5015634;28;20430;-64
2023/10/05 10:26:56;;;;;;;5.17;1.77;;;15.90;96.40;;;;;;5030388;28;20416;-64
2023/10/05 10:30:00;;;;;;;9.57;2.60;;;16.00;96.60;;;;;;5020403;28;20439;-64
2023/10/05 10:32:32;;;;;;;4.73;1.80;;;16.10;97.30;;;;;;5025827;28;20460;-64
2023/10/05 10:35:12;;;;;;;7.70;2.30;;;16.30;96.30;;;;;;5024322;28;20444;-64
2023/10/05 10:37:50;;;;;;;3.90;2.13;;;16.40;95.80;;;;;;5031175;28;20425;-64
2023/10/05 10:45:41;;;;;;;18.50;2.57;;;16.60;95.70;;;;;;5022192;28;20429;-63
2023/10/05 10:48:12;;;;;;;5.53;2.60;;;16.60;95.50;;;;;;5030348;28;20413;-64
2023/10/05 10:50:39;;;;;;;5.00;1.93;;;16.50;96.40;;;;;;5023630;28;20467;-63
2023/10/05 10:53:18;;;;;;;6.60;2.50;;;16.50;95.90;;;;;;5031551;28;20421;-64
2023/10/05 10:55:58;;;;;;;6.00;3.17;;;16.60;95.50;;;;;;5023218;28;20435;-63
2023/10/05 10:58:30;;;;;;;6.13;2.47;;;16.60;95.90;;;;;;5024445;28;20452;-63
2023/10/05 11:01:05;;;;;;;7.53;2.30;;;16.60;96.00;;;;;;5026221;28;20780;-63
2023/10/05 11:03:32;;;;;;;7.33;2.70;;;16.60;95.30;;;;;;5031678;28;20820;-63
2023/10/05 11:06:00;;;;;;;9.50;1.90;;;16.70;95.90;;;;;;5026238;28;20554;-63
2023/10/05 11:08:30;;;;;;;5.97;2.27;;;16.80;95.70;;;;;;5028443;28;20187;-63
2023/10/05 11:11:00;;;;;;;11.57;1.87;;;17.00;95.40;;;;;;5027860;28;20465;-63
2023/10/05 11:13:30;;;;;;;5.13;2.00;;;17.10;95.50;;;;;;5031066;28;20479;-63
2023/10/05 11:16:00;;;;;;;10.83;2.27;;;17.10;95.50;;;;;;5027142;28;20985;-63
2023/10/05 11:18:34;;;;;;;6.13;2.20;;;16.90;96.10;;;;;;5026485;28;20910;-63
2023/10/05 11:21:33;;;;;;;12.63;2.70;;;16.80;95.90;;;;;;5027395;28;20421;-63
2023/10/05 11:23:58;;;;;;;4.40;1.90;;;16.70;96.20;;;;;;5027471;28;20475;-64
2023/10/05 11:26:28;;;;;;;3.83;2.30;;;16.90;95.20;;;;;;5028785;28;21062;-63
2023/10/05 11:28:56;;;;;;;8.73;2.70;;;16.90;95.40;;;;;;5025223;28;20429;-63
2023/10/05 11:31:24;;;;;;;8.87;2.03;;;17.00;96.00;;;;;;5027661;28;20987;-63
2023/10/05 11:33:53;;;;;;;4.97;2.07;;;17.00;95.40;;;;;;5029809;28;20417;-63
2023/10/05 11:36:33;;;;;;;6.23;2.50;;;17.00;94.80;;;;;;5019856;28;21153;-63
2023/10/05 11:39:00;;;;;;;11.40;2.03;;;17.10;94.60;;;;;;5029290;28;20426;-66
2023/10/05 11:41:29;;;;;;;6.07;1.97;;;17.10;95.20;;;;;;5027155;28;20500;-66
2023/10/05 11:43:56;;;;;;;4.17;1.93;;;17.00;95.50;;;;;;5027907;28;20758;-66
2023/10/05 11:46:29;;;;;;;13.30;3.63;;;16.90;96.10;;;;;;5026042;28;20475;-63
2023/10/05 11:48:55;;;;;;;9.97;2.50;;;16.60;95.10;;;;;;5025827;28;20485;-64
2023/10/05 11:51:41;;;;;;;4.10;1.77;;;16.80;95.40;;;;;;5023564;28;20473;-63
2023/10/05 11:54:07;;;;;;;4.77;1.90;;;17.00;95.00;;;;;;5023434;28;20190;-63
2023/10/05 11:56:33;;;;;;;5.80;2.03;;;17.00;95.20;;;;;;5024139;28;20448;-63
2023/10/05 11:59:00;;;;;;;2.90;1.47;;;17.00;95.60;;;;;;5021302;28;20414;-64
2023/10/05 12:01:26;;;;;;;6.17;1.90;;;17.00;95.90;;;;;;5027912;28;20546;-64
2023/10/05 12:03:54;;;;;;;7.47;2.97;;;17.20;95.10;;;;;;5026184;28;20484;-64
2023/10/05 12:06:26;;;;;;;8.20;2.30;;;17.20;94.80;;;;;;5022544;28;20421;-64
2023/10/05 12:09:00;;;;;;;5.97;1.70;;;17.30;94.70;;;;;;5020871;28;20429;-64
2023/10/05 12:11:29;;;;;;;16.37;3.23;;;17.60;94.50;;;;;;5024641;28;20460;-64
2023/10/05 12:13:58;;;;;;;8.53;2.73;;;17.20;93.80;;;;;;5022859;28;20513;-63
2023/10/05 12:16:29;;;;;;;7.50;2.50;;;17.20;94.50;;;;;;5023037;28;20447;-64
2023/10/05 12:18:58;;;;;;;11.07;2.83;;;17.50;94.50;;;;;;5021260;28;20418;-63
2023/10/05 12:21:23;;;;;;;5.23;2.40;;;17.60;93.80;;;;;;5015425;28;20454;-64
2023/10/05 12:23:49;;;;;;;6.23;2.27;;;17.50;93.70;;;;;;5015229;28;20465;-63
2023/10/05 12:26:15;;;;;;;4.47;1.83;;;17.50;93.70;;;;;;5025498;28;20541;-63
2023/10/05 12:28:43;;;;;;;10.17;2.57;;;17.10;93.20;;;;;;5023514;28;20218;-63
2023/10/05 12:31:09;;;;;;;16.50;2.50;;;17.20;93.40;;;;;;5026238;28;20564;-63
2023/10/05 12:33:39;;;;;;;5.03;2.07;;;17.40;94.10;;;;;;5028529;28;20567;-63
2023/10/05 12:36:08;;;;;;;6.83;2.00;;;17.50;94.00;;;;;;5025012;28;20430;-64
2023/10/05 12:38:34;;;;;;;6.30;2.30;;;17.60;93.40;;;;;;5029275;28;20512;-63
2023/10/05 12:41:12;;;;;;;14.20;2.37;;;17.30;93.90;;;;;;5025861;28;20444;-64
2023/10/05 12:43:39;;;;;;;9.07;2.60;;;17.30;93.80;;;;;;5019360;28;20993;-64
2023/10/05 12:46:10;;;;;;;18.23;3.43;;;17.10;94.40;;;;;;5018534;28;20480;-64
2023/10/05 12:48:36;;;;;;;4.70;2.13;;;17.20;93.60;;;;;;5022615;28;20425;-63
2023/10/05 12:51:02;;;;;;;7.33;2.13;;;17.10;93.70;;;;;;5025442;28;20474;-63
2023/10/05 12:53:28;;;;;;;5.00;2.07;;;17.00;94.10;;;;;;5029126;28;20470;-63
2023/10/05 12:55:56;;;;;;;5.30;2.73;;;16.80;94.90;;;;;;5019513;28;20183;-63
2023/10/05 12:58:23;;;;;;;7.30;2.37;;;16.80;94.90;;;;;;5028610;28;20190;-63
2023/10/05 13:00:49;;;;;;;6.33;1.83;;;16.90;95.60;;;;;;5023864;28;20432;-63
2023/10/05 13:03:15;;;;;;;5.40;1.90;;;16.90;95.30;;;;;;5028434;28;20519;-63
2023/10/05 13:05:43;;;;;;;7.20;2.63;;;16.80;96.20;;;;;;5024559;28;20192;-62
2023/10/05 13:08:13;;;;;;;9.57;2.20;;;16.80;96.20;;;;;;5027927;28;20213;-63
2023/10/05 13:10:40;;;;;;;5.73;2.47;;;16.80;94.60;;;;;;5026041;28;20953;-63
2023/10/05 13:13:39;;;;;;;6.70;2.17;;;16.70;95.50;;;;;;5032304;28;20450;-63
2023/10/05 13:15:57;;;;;;;7.00;2.40;;;16.30;95.80;;;;;;5019605;28;20922;-65
2023/10/05 13:18:25;;;;;;;17.20;2.73;;;16.20;96.00;;;;;;5033293;28;20491;-65
2023/10/05 13:20:56;;;;;;;11.87;3.07;;;16.10;96.30;;;;;;5028163;28;20293;-62
2023/10/05 13:23:22;;;;;;;11.27;2.57;;;16.30;97.10;;;;;;5033690;28;20427;-63
2023/10/05 13:25:49;;;;;;;6.13;2.57;;;16.20;95.90;;;;;;5028655;28;20463;-63
2023/10/05 13:28:16;;;;;;;3.87;1.90;;;16.20;96.00;;;;;;5032876;28;20417;-62
2023/10/05 13:30:47;;;;;;;9.50;1.50;;;16.20;95.90;;;;;;5025908;28;20460;-63